createdAt,value
2023-05-14T00:00:17.083Z,0
2023-05-14T00:05:17.208Z,0
2023-05-14T00:10:17.125Z,0
2023-05-14T00:15:16.953Z,0
2023-05-14T00:20:16.963Z,0
2023-05-14T00:25:17.042Z,0
2023-05-14T00:30:16.986Z,0
2023-05-14T00:35:17.116Z,0
2023-05-14T00:40:17.677Z,0
2023-05-14T00:45:16.970Z,0
2023-05-14T00:50:17.010Z,0
2023-05-14T00:55:17.092Z,0
2023-05-14T01:00:17.131Z,0
2023-05-14T01:05:16.962Z,0
2023-05-14T01:10:17.328Z,0
2023-05-14T01:15:18.049Z,0
2023-05-14T01:20:18.328Z,0
2023-05-14T01:25:18.155Z,0
2023-05-14T01:30:18.602Z,0
2023-05-14T01:35:18.232Z,0
2023-05-14T01:40:18.962Z,0
2023-05-14T01:45:19.023Z,0
2023-05-14T01:50:18.201Z,0
2023-05-14T01:55:18.206Z,0
2023-05-14T02:00:18.413Z,0
2023-05-14T02:05:18.244Z,0
2023-05-14T02:10:18.184Z,0
2023-05-14T02:15:18.489Z,0
2023-05-14T02:20:16.257Z,0
2023-05-14T02:25:16.166Z,0
2023-05-14T02:30:16.681Z,0
2023-05-14T02:35:16.247Z,0
2023-05-14T02:40:16.683Z,0
2023-05-14T02:45:16.209Z,0
2023-05-14T02:50:16.419Z,0
2023-05-14T02:55:17.103Z,0
2023-05-14T03:00:16.303Z,0
2023-05-14T03:05:16.715Z,0
2023-05-14T03:10:16.413Z,0
2023-05-14T03:15:16.358Z,0
2023-05-14T03:20:16.370Z,0
2023-05-14T03:25:16.645Z,0
2023-05-14T03:30:16.392Z,0
2023-05-14T03:35:16.330Z,0
2023-05-14T03:40:16.566Z,0
2023-05-14T03:45:16.992Z,0
2023-05-14T03:50:16.666Z,0
2023-05-14T03:55:16.426Z,0
2023-05-14T04:00:17.570Z,0
2023-05-14T04:05:17.360Z,0
2023-05-14T04:10:17.728Z,0
2023-05-14T04:15:17.425Z,0
2023-05-14T04:20:17.564Z,0
2023-05-14T04:25:17.528Z,0
2023-05-14T04:30:17.740Z,0
2023-05-14T04:35:17.409Z,0
2023-05-14T04:40:17.753Z,0
2023-05-14T04:45:17.491Z,0
2023-05-14T04:50:17.516Z,0
2023-05-14T04:55:17.578Z,0
2023-05-14T05:00:17.709Z,0
2023-05-14T05:05:17.663Z,0
2023-05-14T05:10:17.573Z,0
2023-05-14T05:15:20.036Z,0
2023-05-14T05:20:16.932Z,0
2023-05-14T05:25:16.827Z,0
2023-05-14T05:30:16.630Z,0
2023-05-14T05:35:16.552Z,0
2023-05-14T05:40:16.995Z,0
2023-05-14T05:45:17.659Z,0
2023-05-14T05:50:17.898Z,0
2023-05-14T05:55:16.704Z,0
2023-05-14T06:00:16.968Z,0
2023-05-14T06:05:16.680Z,0
2023-05-14T06:10:17.137Z,0
2023-05-14T06:15:17.741Z,0
2023-05-14T06:20:17.566Z,0
2023-05-14T06:25:17.435Z,0
2023-05-14T06:30:17.741Z,0
2023-05-14T06:35:17.350Z,0
2023-05-14T06:40:17.677Z,0
2023-05-14T06:45:17.314Z,0
2023-05-14T06:50:17.916Z,0
2023-05-14T06:55:17.603Z,0
2023-05-14T07:00:17.574Z,0
2023-05-14T07:05:17.510Z,0
2023-05-14T07:10:17.638Z,0
2023-05-14T07:15:17.428Z,0
2023-05-14T07:20:17.906Z,0
2023-05-14T07:25:18.114Z,0
2023-05-14T07:30:17.392Z,0
2023-05-14T07:35:17.501Z,0
2023-05-14T07:40:19.780Z,0
2023-05-14T07:45:18.464Z,0
2023-05-14T07:50:18.617Z,0
2023-05-14T07:55:19.585Z,0
2023-05-14T08:00:17.913Z,0
2023-05-14T08:05:17.614Z,0
2023-05-14T08:10:17.582Z,0
2023-05-14T08:15:17.551Z,0
2023-05-14T08:20:17.741Z,0
2023-05-14T08:25:17.709Z,0
2023-05-14T08:30:18.192Z,0
2023-05-14T08:35:17.546Z,0
2023-05-14T08:40:17.865Z,0
2023-05-14T08:45:17.612Z,0
2023-05-14T08:50:18.160Z,0
2023-05-14T08:55:17.829Z,0
2023-05-14T09:00:17.697Z,0
2023-05-14T09:05:18.522Z,0
2023-05-14T09:10:18.800Z,0
2023-05-14T09:15:17.685Z,0
2023-05-14T09:20:17.686Z,0
2023-05-14T09:25:17.918Z,2
2023-05-14T09:30:17.976Z,5
2023-05-14T09:35:18.045Z,8
2023-05-14T09:40:17.911Z,12
2023-05-14T09:45:18.911Z,14
2023-05-14T09:50:18.956Z,19
2023-05-14T09:55:18.365Z,23
2023-05-14T10:00:17.849Z,27
2023-05-14T10:05:17.874Z,33
2023-05-14T10:10:18.126Z,40
2023-05-14T10:15:18.174Z,52
2023-05-14T10:20:18.124Z,65
2023-05-14T10:25:20.397Z,71
2023-05-14T10:30:19.084Z,88
2023-05-14T10:35:17.870Z,111
2023-05-14T10:40:18.348Z,126
2023-05-14T10:45:17.833Z,145
2023-05-14T10:50:18.267Z,162
2023-05-14T10:55:18.198Z,170
2023-05-14T11:00:18.062Z,180
2023-05-14T11:05:18.059Z,196
2023-05-14T11:10:18.251Z,213
2023-05-14T11:15:18.068Z,211
2023-05-14T11:20:18.189Z,220
2023-05-14T11:25:18.186Z,245
2023-05-14T11:30:18.472Z,236
2023-05-14T11:35:18.034Z,272
2023-05-14T11:40:18.479Z,297
2023-05-14T11:45:18.979Z,280
2023-05-14T11:50:19.383Z,308
2023-05-14T11:55:18.232Z,337
2023-05-14T12:00:18.528Z,369
2023-05-14T12:05:18.164Z,369
2023-05-14T12:10:18.803Z,349
2023-05-14T12:15:18.252Z,388
2023-05-14T12:20:18.202Z,399
2023-05-14T12:25:18.230Z,409
2023-05-14T12:30:21.621Z,418
2023-05-14T12:35:18.731Z,383
2023-05-14T12:40:18.484Z,272
2023-05-14T12:45:18.249Z,120
2023-05-14T12:50:18.146Z,120
2023-05-14T12:55:18.959Z,145
2023-05-14T13:00:18.671Z,416
2023-05-14T13:05:18.217Z,395
2023-05-14T13:10:18.907Z,417
2023-05-14T13:15:18.266Z,415
2023-05-14T13:20:18.637Z,455
2023-05-14T13:25:18.417Z,478
2023-05-14T13:30:18.411Z,512
2023-05-14T13:35:18.292Z,539
2023-05-14T13:40:18.531Z,583
2023-05-14T13:45:19.992Z,616
2023-05-14T13:50:19.495Z,618
2023-05-14T13:55:18.491Z,643
2023-05-14T14:00:18.425Z,657
2023-05-14T14:05:18.393Z,716
2023-05-14T14:10:19.231Z,722
2023-05-14T14:15:18.449Z,755
2023-05-14T14:20:18.723Z,763
2023-05-14T14:25:18.503Z,745
2023-05-14T14:30:18.460Z,788
2023-05-14T14:35:18.453Z,785
2023-05-14T14:40:18.732Z,799
2023-05-14T14:45:18.547Z,815
2023-05-14T14:50:18.491Z,815
2023-05-14T14:55:19.276Z,829
2023-05-14T15:00:18.567Z,842
2023-05-14T15:05:18.435Z,836
2023-05-14T15:10:18.683Z,839
2023-05-14T15:15:18.919Z,853
2023-05-14T15:20:18.890Z,850
2023-05-14T15:25:19.216Z,852
2023-05-14T15:30:19.017Z,850
2023-05-14T15:35:18.547Z,861
2023-05-14T15:40:18.726Z,852
2023-05-14T15:45:19.471Z,830
2023-05-14T15:50:19.880Z,805
2023-05-14T15:55:18.518Z,848
2023-05-14T16:00:18.737Z,876
2023-05-14T16:05:19.135Z,864
2023-05-14T16:10:18.736Z,870
2023-05-14T16:15:18.608Z,926
2023-05-14T16:20:18.776Z,930
2023-05-14T16:25:18.793Z,906
2023-05-14T16:30:18.943Z,903
2023-05-14T16:35:18.749Z,901
2023-05-14T16:40:19.305Z,925
2023-05-14T16:45:18.987Z,905
2023-05-14T16:50:18.806Z,892
2023-05-14T16:55:18.901Z,849
2023-05-14T17:00:18.684Z,919
2023-05-14T17:05:18.656Z,924
2023-05-14T17:10:19.182Z,940
2023-05-14T17:15:19.104Z,947
2023-05-14T17:20:18.778Z,943
2023-05-14T17:25:18.975Z,951
2023-05-14T17:30:18.846Z,702
2023-05-14T17:35:18.787Z,635
2023-05-14T17:40:19.327Z,783
2023-05-14T17:45:20.914Z,788
2023-05-14T17:50:19.867Z,752
2023-05-14T17:55:19.366Z,942
2023-05-14T18:00:19.097Z,936
2023-05-14T18:05:20.690Z,923
2023-05-14T18:10:17.023Z,909
2023-05-14T18:15:17.060Z,899
2023-05-14T18:20:17.974Z,898
2023-05-14T18:25:17.040Z,897
2023-05-14T18:30:16.959Z,894
2023-05-14T18:35:16.914Z,879
2023-05-14T18:40:18.728Z,851
2023-05-14T18:45:16.984Z,835
2023-05-14T18:50:17.303Z,861
2023-05-14T18:55:17.296Z,864
2023-05-14T19:00:17.175Z,851
2023-05-14T19:05:17.065Z,837
2023-05-14T19:10:17.616Z,824
2023-05-14T19:15:17.083Z,811
2023-05-14T19:20:17.000Z,798
2023-05-14T19:25:17.324Z,785
2023-05-14T19:30:17.363Z,774
2023-05-14T19:35:17.117Z,764
2023-05-14T19:40:17.092Z,749
2023-05-14T19:45:18.016Z,737
2023-05-14T19:50:18.379Z,720
2023-05-14T19:55:17.210Z,704
2023-05-14T20:00:17.428Z,693
2023-05-14T20:05:17.313Z,680
2023-05-14T20:10:17.297Z,666
2023-05-14T20:15:17.233Z,652
2023-05-14T20:20:17.175Z,638
2023-05-14T20:25:17.470Z,622
2023-05-14T20:30:17.296Z,608
2023-05-14T20:35:17.347Z,592
2023-05-14T20:40:18.077Z,579
2023-05-14T20:45:17.194Z,563
2023-05-14T20:50:17.708Z,545
2023-05-14T20:55:17.332Z,528
2023-05-14T21:00:17.292Z,512
2023-05-14T21:05:17.214Z,497
2023-05-14T21:10:17.828Z,482
2023-05-14T21:15:17.564Z,465
2023-05-14T21:20:17.594Z,449
2023-05-14T21:25:18.775Z,427
2023-05-14T21:30:17.335Z,417
2023-05-14T21:35:17.502Z,402
2023-05-14T21:40:18.066Z,386
2023-05-14T21:45:18.876Z,369
2023-05-14T21:50:18.671Z,351
2023-05-14T21:55:17.419Z,235
2023-05-14T22:00:17.430Z,47
2023-05-14T22:05:17.356Z,44
2023-05-14T22:10:17.563Z,42
2023-05-14T22:15:17.401Z,40
2023-05-14T22:20:18.061Z,40
2023-05-14T22:25:17.520Z,38
2023-05-14T22:30:17.406Z,37
2023-05-14T22:35:17.426Z,35
2023-05-14T22:40:18.042Z,33
2023-05-14T22:45:17.361Z,32
2023-05-14T22:50:17.517Z,30
2023-05-14T22:55:18.254Z,29
2023-05-14T23:00:17.520Z,27
2023-05-14T23:05:17.574Z,26
2023-05-14T23:10:17.636Z,25
2023-05-14T23:15:17.498Z,23
2023-05-14T23:20:17.691Z,21
2023-05-14T23:25:17.789Z,19
2023-05-14T23:30:18.222Z,17
2023-05-14T23:35:17.793Z,15
2023-05-14T23:40:17.715Z,12
2023-05-14T23:45:19.026Z,10
2023-05-14T23:50:18.792Z,8
2023-05-14T23:55:17.711Z,6
